Thursday, November 23, 2017, 1:25 PM EST
Back to Local

KMIV, Millville Municipal Airport

Location: Millville, NJ, United States Lat: 39.367
Local Time: 1:25 PM EST (18:25 GMT) Lon: -75.083
Time Zone: US/Eastern Elev: 85 ft

Show me the last for .
Show Decoded

2017-11-23 12:54 METAR KMIV 231754Z AUTO 29005KT 10SM CLR 04/M05 A3008 RMK AO2 SLP185 T00441050
                 10044 21050 58028 =
2017-11-23 11:54 METAR KMIV 231654Z AUTO 33008KT 10SM CLR 03/M06 A3011 RMK AO2 SLP197 T00331056 =
2017-11-23 10:54 METAR KMIV 231554Z AUTO 30008KT 10SM CLR 02/M06 A3014 RMK AO2 SLP206 T00221056 =
2017-11-23 09:54 METAR KMIV 231454Z AUTO 32008KT 10SM CLR 02/M06 A3016 RMK AO2 SLP213 T00171056
                 50001 =
2017-11-23 08:54 METAR KMIV 231354Z AUTO 31005KT 10SM CLR 01/M06 A3017 RMK AO2 SLP216 T00061056 =
2017-11-23 07:54 METAR KMIV 231254Z AUTO 29005KT 10SM CLR M01/M04 A3017 RMK AO2 SLP216 T10111044
                 =
2017-11-23 06:54 METAR KMIV 231154Z AUTO 26003KT 10SM CLR M03/M05 A3016 RMK AO2 SLP211 7////
                 T10331050 10017 21039 53007 =
2017-11-23 05:54 METAR KMIV 231054Z AUTO 28004KT 10SM CLR M02/M05 A3015 RMK AO2 SLP209 T10221050
                 =
2017-11-23 04:54 METAR KMIV 230954Z AUTO 29006KT 10SM CLR M02/M04 A3014 RMK AO2 SLP204 T10221044
                 =
2017-11-23 03:54 METAR KMIV 230854Z AUTO 27004KT 10SM CLR M02/M04 A3014 RMK AO2 SLP205 T10221039
                 50007 =
2017-11-23 02:54 METAR KMIV 230754Z AUTO 23004KT 10SM CLR M02/M04 A3014 RMK AO2 SLP206 T10221044
                 =
2017-11-23 01:54 METAR KMIV 230654Z AUTO 26004KT 10SM CLR 00/M04 A3012 RMK AO2 SLP200 T00001044 =
2017-11-23 00:54 METAR KMIV 230554Z AUTO 32004KT 10SM CLR 02/M04 A3011 RMK AO2 SLP196 T00171039
                 10072 20011 56002 =
2017-11-22 23:54 METAR KMIV 230454Z AUTO 33008KT 10SM CLR 02/M04 A3012 RMK AO2 SLP197 T00221039
                 401440022 =
2017-11-22 22:54 METAR KMIV 230354Z AUTO 32012G18KT 10SM CLR 03/M03 A3011 RMK AO2 SLP196
                 T00331028 =
2017-11-22 21:54 METAR KMIV 230254Z AUTO 31007KT 10SM CLR 04/M03 A3012 RMK AO2 SLP199 T00391028
                 53016 =
2017-11-22 20:54 METAR KMIV 230154Z AUTO 32007KT 10SM CLR 04/M03 A3009 RMK AO2 SLP189 T00441028 =
2017-11-22 19:54 METAR KMIV 230054Z AUTO 32006KT 10SM OVC047 06/M02 A3009 RMK AO2 SLP186
                 T00611017 =
2017-11-22 18:54 METAR KMIV 222354Z AUTO 35010KT 10SM OVC047 07/M01 A3007 RMK AO2 SLP182 6////
                 T00721011 10139 20072 51035 =
2017-11-22 17:54 METAR KMIV 222254Z AUTO 33006KT 10SM OVC048 08/01 A3004 RMK AO2 SLP171 T00830006
                 =
2017-11-22 16:54 METAR KMIV 222154Z AUTO 33012G23KT 10SM OVC049 09/01 A3001 RMK AO2 SLP162
                 T00890011 =
2017-11-22 15:54 METAR KMIV 222054Z AUTO 33016G26KT 10SM BKN050 10/02 A2997 RMK AO2 PK WND
                 30026/2049 SLP148 6//// T01000022 53021 =
2017-11-22 14:54 METAR KMIV 221954Z AUTO 34013G23KT 10SM BKN050 12/02 A2994 RMK AO2 SLP136
                 T01220022 =
2017-11-22 13:54 METAR KMIV 221854Z AUTO 33017G24KT 10SM FEW048 13/03 A2992 RMK AO2 PK WND
                 29028/1803 SLP131 T01330033 =

Support USWX by starting your Amazon purchase here.